• pl
  • eng

Awiacja
WIADOMOŚCI
ostatnia aktualizacja: 26.03.2018 14:15
Szanowni Państwo,

uprzejmie informujemy, że od dnia 29 marca br., od godziny 08.30 UTC, IMGW-PIB wprowadza zmianę częstotliwości wydawania prognoz TAF FT dla lotnisk EPWA, EPKK i EPWR. Od tego terminu prognozy będą publikowane co 3 godziny. Okres ich ważności nie ulega zmianie.

TAF dla lotnisk wojskowych 13:30 23.04.2018

TAF EPCE 231100Z 2312/2321 21010KT CAVOK PROB30 TEMPO 2312/2315 6000
SHRA BKN020CB BECMG 2315/2317 27012KT =

TAF EPDA 231100Z 2312/2321 20010KT CAVOK BECMG 2312/2314 27012KT =

TAF EPDE 231100Z 2312/2321 18010KT CAVOK PROB30 TEMPO 2317/2321 6000
-SHRA BKN040CB=

TAF EPIR 231100Z 2312/2321 18018KT CAVOK TEMPO 2317/2320 27015G30KT
SHRA BKN030CB PROB30 TEMPO 2316/2318 4000 TSRA BKN020CB =

TAF EPKS 231100Z 2312/2321 27010KT 9999 BKN040
TEMPO 2312/2316 -SHRA BKN030CB
PROB40 TEMPO 2312/2316 27015G25KT 5000 TSRA BKN020CB =

TAF EPLY 231100Z 2312/2321 21010KT CAVOK TEMPO 2313/2319 5000 SHRA
BKN027CB PROB40 TEMPO 2315/2319 VRB15G28KT 3000 TSRA BKN017CB
BECMG 2315/2317 27008KT=

TAF EPMM 231100Z 2312/2321 18008KT CAVOK TEMPO 2316/2321 8000 -SHRA
BKN030CB PROB40 2317/2321 VRB15G30KT 3000 TSRA BKN013CB =

TAF EPOK 231100Z 2312/2321 15005KT CAVOK BECMG 2312/2314 27012KT
BKN030 PROB40 TEMPO 2312/2316 SHRA BKN020CB PROB30 TEMPO
2314/2315 27015G25KT 5000 TSRA BKN015CB =

TAF EPPR 231100Z 2312/2321 16008KT CAVOK PROB30 TEMPO 2312/2316 5000
SHRA BKN030CB BECMG 2317/2319 24008KT=

TAF EPPW 231100Z 2312/2321 21012KT CAVOK TEMPO 2313/2317 5000 SHRA
BKN017CB PROB40 TEMPO 2314/2317 VRB16G30KT 3000 TSRA BKN013CB
BECMG 2315/2317 27008KT =

TAF EPSN 231100Z 2312/2321 28012KT 9999 SCT033 TEMPO 2312/2318 6000
SHRA BKN020CB PROB40 2314/2317 4000 TSRA BKN015CB =

TAF EPTM 231100Z 2312/2321 16008KT CAVOK TEMPO 2315/2318 5000 SHRA BR
BKN033CB
PROB30 TEMPO 2315/2319 VRB15G25KT 4000 TSRA BR BKN020CB
BECMG 2315/2317 25010KT=
Awiacja.imgw.pl jest pogodowym serwisem informacyjnym
Instytutu Meteorologii i Gospodarki Wodnej Państwowego Instytutu Badawczego.
Copyright IMGW PIB 2009-2011© Wszelkie prawa zastrzeżone.